Time;durP1;ratioP1;P1;durP2;ratioP2;P2;SDS_P1;SDS_P2;PMS_P1;PMS_P2;Temp;Humidity;BMP_temperature;BMP_pressure;BME280_temperature;BME280_humidity;BME280_pressure;Samples;Min_cycle;Max_cycle;Signal;HPM_P1;HPM_P2
2023/03/27 00:00:08;;;;;;;;;;;;;;;2.55;80.72;101414.44;5066855;28;1517;-73
2023/03/27 00:02:33;;;;;;;;;;;;;;;2.55;81.05;101420.38;5062088;28;1467;-73
2023/03/27 00:05:00;;;;;;;;;;;;;;;2.52;82.11;101420.50;5042962;28;1452;-73
2023/03/27 00:07:25;;;;;;;;;;;;;;;2.53;81.86;101422.19;5064510;28;1979;-72
2023/03/27 00:09:52;;;;;;;;;;;;;;;2.54;81.87;101423.84;5044934;28;1742;-73
2023/03/27 00:12:17;;;;;;;;;;;;;;;2.54;82.04;101434.09;5064675;28;1405;-73
2023/03/27 00:14:44;;;;;;;;;;;;;;;2.52;82.20;101433.28;5048060;28;4988;-73
2023/03/27 00:17:09;;;;;;;;;;;;;;;2.54;81.06;101434.09;5056894;28;1118;-73
2023/03/27 00:19:35;;;;;;;;;;;;;;;2.50;81.34;101437.66;5041752;28;1086;-73
2023/03/27 00:22:00;;;;;;;;;;;;;;;2.52;82.03;101440.97;5047610;28;2219;-73
2023/03/27 00:24:26;;;;;;;;;;;;;;;2.50;82.05;101453.00;5054139;28;1129;-73
2023/03/27 00:26:51;;;;;;;;;;;;;;;2.51;82.31;101458.97;5052120;28;2015;-73
2023/03/27 00:29:17;;;;;;;;;;;;;;;2.51;82.47;101459.78;5060361;28;1169;-73
2023/03/27 00:31:42;;;;;;;;;;;;;;;2.53;82.01;101468.28;5054259;28;2306;-74
2023/03/27 00:34:07;;;;;;;;;;;;;;;2.52;82.28;101466.56;5052369;28;1093;-73
2023/03/27 00:36:32;;;;;;;;;;;;;;;2.57;82.38;101469.81;5043839;28;1147;-73
2023/03/27 00:38:58;;;;;;;;;;;;;;;2.59;83.43;101472.31;5064724;28;1121;-73
2023/03/27 00:41:23;;;;;;;;;;;;;;;2.80;83.92;101470.66;5063683;28;1995;-73
2023/03/27 00:43:49;;;;;;;;;;;;;;;2.59;84.14;101480.84;5046022;28;1311;-73
2023/03/27 00:46:17;;;;;;;;;;;;;;;2.59;84.19;101465.47;5065287;28;1906;-73
2023/03/27 00:48:47;;;;;;;;;;;;;;;2.58;84.40;101476.63;5042443;28;2307;-73
2023/03/27 00:51:12;;;;;;;;;;;;;;;2.60;84.36;101469.69;5065740;28;1346;-73
2023/03/27 00:53:37;;;;;;;;;;;;;;;2.62;84.81;101479.88;5066902;28;1423;-73
2023/03/27 00:56:04;;;;;;;;;;;;;;;2.69;86.19;101483.88;5069003;28;1370;-72
2023/03/27 00:58:36;;;;;;;;;;;;;;;2.69;85.00;101483.03;5051019;28;1352;-73
2023/03/27 01:01:01;;;;;;;;;;;;;;;2.76;86.25;101487.88;5069122;28;1273;-73
2023/03/27 01:03:29;;;;;;;;;;;;;;;2.75;85.48;101487.91;5063502;28;1234;-73
2023/03/27 01:05:55;;;;;;;;;;;;;;;2.77;85.73;101486.16;5067089;28;1571;-74
2023/03/27 01:08:20;;;;;;;;;;;;;;;2.76;88.32;101502.41;5068415;28;1893;-73
2023/03/27 01:10:51;;;;;;;;;;;;;;;2.80;86.29;101491.97;5062178;28;1551;-73
2023/03/27 01:13:29;;;;;;;;;;;;;;;2.79;86.98;101494.59;5048821;28;1641;-73
2023/03/27 01:15:59;;;;;;;;;;;;;;;2.82;86.85;101503.03;5063250;28;5162;-73
2023/03/27 01:18:39;;;;;;;;;;;;;;;2.82;86.76;101507.31;5068784;28;1555;-73
2023/03/27 01:21:23;;;;;;;;;;;;;;;2.82;87.24;101509.88;5050899;28;1420;-73
2023/03/27 01:24:07;;;;;;;;;;;;;;;2.83;87.21;101503.84;5050767;28;1454;-73
2023/03/27 01:26:57;;;;;;;;;;;;;;;2.84;87.30;101523.44;5067224;28;1893;-73
2023/03/27 01:29:40;;;;;;;;;;;;;;;2.87;88.00;101523.34;5069473;28;1305;-73
2023/03/27 01:32:24;;;;;;;;;;;;;;;2.85;88.00;101525.94;5064748;28;1294;-73
2023/03/27 01:35:23;;;;;;;;;;;;;;;2.86;87.29;101531.91;5058020;28;1957;-73
2023/03/27 01:38:01;;;;;;;;;;;;;;;2.98;88.16;101536.53;5025798;28;2251;-72
2023/03/27 01:40:33;;;;;;;;;;;;;;;2.93;87.88;101528.22;5058329;28;1579;-73
2023/03/27 01:43:01;;;;;;;;;;;;;;;2.87;87.75;101534.41;5049495;28;1351;-73
2023/03/27 01:45:49;;;;;;;;;;;;;;;2.85;89.15;101537.91;5066308;28;1397;-73
2023/03/27 01:48:17;;;;;;;;;;;;;;;2.85;88.44;101545.59;5037027;28;1930;-73
2023/03/27 01:50:51;;;;;;;;;;;;;;;2.87;89.11;101538.72;5066141;28;1385;-73
2023/03/27 01:53:16;;;;;;;;;;;;;;;2.93;88.15;101541.03;5067235;28;1507;-73
2023/03/27 01:55:45;;;;;;;;;;;;;;;2.91;88.11;101551.31;5049147;28;1515;-73
2023/03/27 01:58:14;;;;;;;;;;;;;;;2.88;88.40;101548.06;5046223;28;1286;-72
2023/03/27 02:00:41;;;;;;;;;;;;;;;2.87;88.22;101548.97;5067819;28;1296;-73
2023/03/27 02:03:16;;;;;;;;;;;;;;;2.85;88.15;101553.28;5065667;28;1361;-72
2023/03/27 02:05:51;;;;;;;;;;;;;;;2.81;88.86;101544.03;5064320;28;1284;-73
2023/03/27 02:08:25;;;;;;;;;;;;;;;2.85;88.58;101555.84;5066369;28;1971;-73
2023/03/27 02:10:54;;;;;;;;;;;;;;;2.80;89.38;101557.75;5041776;28;1562;-73
2023/03/27 02:13:26;;;;;;;;;;;;;;;2.72;89.14;101560.59;5066208;28;1348;-73
2023/03/27 02:15:55;;;;;;;;;;;;;;;2.71;88.98;101568.34;5061262;28;5306;-75
2023/03/27 02:18:27;;;;;;;;;;;;;;;2.66;89.26;101566.78;5040148;28;1253;-73
2023/03/27 02:20:52;;;;;;;;;;;;;;;2.64;88.74;101578.00;5065774;28;1114;-74
2023/03/27 02:23:18;;;;;;;;;;;;;;;2.59;89.09;101575.59;5062737;28;1978;-73
2023/03/27 02:25:44;;;;;;;;;;;;;;;2.58;89.39;101583.31;5064604;28;1381;-73
2023/03/27 02:28:09;;;;;;;;;;;;;;;2.56;89.26;101595.34;5067546;28;1961;-73
2023/03/27 02:30:35;;;;;;;;;;;;;;;2.60;89.22;101596.91;5042269;28;1112;-73
2023/03/27 02:33:15;;;;;;;;;;;;;;;2.49;88.48;101591.34;5069273;28;2489;-72
2023/03/27 02:36:05;;;;;;;;;;;;;;;2.47;89.19;101595.69;5049249;28;1107;-73
2023/03/27 02:38:45;;;;;;;;;;;;;;;2.44;88.43;101588.94;5052821;28;1729;-73
2023/03/27 02:41:13;;;;;;;;;;;;;;;2.41;89.22;101596.75;5060383;28;1948;-73
2023/03/27 02:43:46;;;;;;;;;;;;;;;2.40;88.40;101595.03;5048303;28;1449;-73
2023/03/27 02:46:16;;;;;;;;;;;;;;;2.37;88.51;101605.41;5065546;28;1902;-72
2023/03/27 02:48:44;;;;;;;;;;;;;;;2.37;89.17;101615.66;5065067;28;1277;-73
2023/03/27 02:51:22;;;;;;;;;;;;;;;2.30;89.21;101619.31;5065138;28;1343;-73
2023/03/27 02:53:52;;;;;;;;;;;;;;;2.24;89.60;101624.66;5059272;28;1385;-72
2023/03/27 02:56:18;;;;;;;;;;;;;;;2.23;89.99;101622.94;5062316;28;1288;-74
2023/03/27 02:58:49;;;;;;;;;;;;;;;2.23;89.60;101633.19;5066857;28;1444;-73
2023/03/27 03:01:20;;;;;;;;;;;;;;;2.23;88.84;101622.94;5061234;28;1465;-73
2023/03/27 03:03:52;;;;;;;;;;;;;;;2.18;89.71;101617.16;5068011;28;1505;-73
2023/03/27 03:06:19;;;;;;;;;;;;;;;2.19;89.31;101622.22;5065525;28;1953;-73
2023/03/27 03:08:45;;;;;;;;;;;;;;;2.17;89.41;101631.66;5063713;28;1555;-73
2023/03/27 03:11:12;;;;;;;;;;;;;;;2.16;88.98;101621.50;5059626;28;1304;-73
2023/03/27 03:13:37;;;;;;;;;;;;;;;2.15;89.38;101635.19;5047858;28;4598;-73
2023/03/27 03:16:02;;;;;;;;;;;;;;;2.12;89.66;101631.84;5046143;28;1297;-73
2023/03/27 03:18:28;;;;;;;;;;;;;;;2.07;88.95;101649.06;5049664;28;1246;-73
2023/03/27 03:20:53;;;;;;;;;;;;;;;2.05;89.90;101650.81;5066548;28;1304;-73
2023/03/27 03:23:22;;;;;;;;;;;;;;;2.02;89.04;101653.50;5063295;28;1519;-73
2023/03/27 03:25:51;;;;;;;;;;;;;;;2.01;89.91;101659.50;5043331;28;1575;-73
2023/03/27 03:28:19;;;;;;;;;;;;;;;1.99;89.81;101645.91;5064498;28;1886;-73
2023/03/27 03:30:49;;;;;;;;;;;;;;;2.00;89.41;101662.94;5042390;28;2239;-73
2023/03/27 03:33:14;;;;;;;;;;;;;;;1.99;89.34;101661.25;5057084;28;1306;-72
2023/03/27 03:35:39;;;;;;;;;;;;;;;1.99;90.02;101655.31;5063011;28;1582;-73
2023/03/27 03:38:05;;;;;;;;;;;;;;;1.98;90.02;101664.72;5043823;28;1453;-73
2023/03/27 03:40:30;;;;;;;;;;;;;;;1.98;89.93;101666.44;5065566;28;1422;-72
2023/03/27 03:42:56;;;;;;;;;;;;;;;1.96;90.21;101681.84;5066615;28;1190;-73
2023/03/27 03:45:21;;;;;;;;;;;;;;;1.93;90.09;101681.94;5035651;28;1365;-73
2023/03/27 03:47:46;;;;;;;;;;;;;;;1.92;89.86;101680.25;5047061;28;1898;-73
2023/03/27 03:50:12;;;;;;;;;;;;;;;1.89;90.25;101680.34;5045120;28;1376;-73
2023/03/27 03:52:38;;;;;;;;;;;;;;;1.85;90.14;101683.91;5046468;28;1482;-72
2023/03/27 03:55:03;;;;;;;;;;;;;;;1.79;90.02;101694.31;5046080;28;1304;-73
2023/03/27 03:57:29;;;;;;;;;;;;;;;1.85;90.92;101692.41;5040184;28;1493;-73
2023/03/27 03:59:56;;;;;;;;;;;;;;;1.83;90.61;101701.00;5042459;28;1668;-72
2023/03/27 04:02:27;;;;;;;;;;;;;;;1.98;90.93;101695.41;5028901;28;1431;-72
2023/03/27 04:04:53;;;;;;;;;;;;;;;1.87;90.63;101702.59;5044821;28;1783;-74
2023/03/27 04:07:20;;;;;;;;;;;;;;;1.90;90.97;101717.84;5044642;28;1961;-72
2023/03/27 04:09:46;;;;;;;;;;;;;;;1.88;91.48;101709.38;5042517;28;1317;-73
2023/03/27 04:12:11;;;;;;;;;;;;;;;1.87;92.01;101717.94;5046590;28;1483;-73
2023/03/27 04:14:37;;;;;;;;;;;;;;;1.85;92.00;101719.72;5045016;28;5180;-73
2023/03/27 04:17:02;;;;;;;;;;;;;;;1.86;91.65;101726.50;5041767;28;1074;-73
2023/03/27 04:19:27;;;;;;;;;;;;;;;1.89;92.17;101721.25;5031531;28;1026;-73
2023/03/27 04:21:55;;;;;;;;;;;;;;;1.89;91.41;101728.94;5041577;28;1410;-73
2023/03/27 04:24:22;;;;;;;;;;;;;;;1.90;91.42;101728.09;5041978;28;1283;-71
2023/03/27 04:26:48;;;;;;;;;;;;;;;1.89;91.52;101733.22;5046203;28;2596;-72
2023/03/27 04:29:13;;;;;;;;;;;;;;;1.87;91.66;101743.50;5044047;28;1357;-74
2023/03/27 04:31:38;;;;;;;;;;;;;;;1.83;91.67;101741.91;5046740;28;1257;-73
2023/03/27 04:34:03;;;;;;;;;;;;;;;1.83;91.03;101741.91;5046535;28;1562;-73
2023/03/27 04:36:29;;;;;;;;;;;;;;;1.86;91.35;101754.63;5028650;28;1591;-73
2023/03/27 04:38:54;;;;;;;;;;;;;;;1.85;90.55;101760.63;5043900;28;1386;-73
2023/03/27 04:41:20;;;;;;;;;;;;;;;1.81;90.52;101769.28;5028550;28;2303;-74
2023/03/27 04:43:45;;;;;;;;;;;;;;;1.81;90.73;101771.84;5046865;28;1283;-73
2023/03/27 04:46:10;;;;;;;;;;;;;;;1.80;91.25;101782.94;5042160;28;1902;-74
2023/03/27 04:48:37;;;;;;;;;;;;;;;1.75;91.08;101774.56;5041835;28;1269;-74
2023/03/27 04:51:03;;;;;;;;;;;;;;;1.71;91.04;101772.97;5046035;28;1383;-73
2023/03/27 04:53:29;;;;;;;;;;;;;;;1.69;91.04;101769.66;5046378;28;1511;-73
2023/03/27 04:55:56;;;;;;;;;;;;;;;1.67;91.37;101776.53;5041727;28;1444;-74
2023/03/27 04:58:22;;;;;;;;;;;;;;;1.68;91.09;101770.53;5028155;28;1647;-73
2023/03/27 05:00:49;;;;;;;;;;;;;;;1.65;91.10;101770.59;5045579;28;1291;-73
2023/03/27 05:03:21;;;;;;;;;;;;;;;1.70;91.02;101777.25;5040600;28;1274;-74
2023/03/27 05:05:48;;;;;;;;;;;;;;;1.57;91.16;101781.91;5026222;28;1399;-73
2023/03/27 05:08:13;;;;;;;;;;;;;;;1.53;90.94;101793.09;5045888;28;1967;-74
2023/03/27 05:10:39;;;;;;;;;;;;;;;1.52;91.13;101788.88;5040723;28;1418;-73
2023/03/27 05:13:04;;;;;;;;;;;;;;;1.52;91.27;101798.25;5042842;28;1630;-74
2023/03/27 05:15:32;;;;;;;;;;;;;;;1.49;91.30;101804.31;5043810;28;4914;-74
2023/03/27 05:17:57;;;;;;;;;;;;;;;1.46;91.48;101804.38;5043043;28;1202;-74
2023/03/27 05:20:23;;;;;;;;;;;;;;;1.44;91.44;101806.16;5025191;28;1526;-74
2023/03/27 05:22:51;;;;;;;;;;;;;;;1.43;90.76;101808.72;5042056;28;2133;-74
2023/03/27 05:25:16;;;;;;;;;;;;;;;1.43;91.53;101817.22;5032654;28;2388;-73
2023/03/27 05:27:45;;;;;;;;;;;;;;;1.43;91.39;101814.66;5048985;28;1945;-74
2023/03/27 05:30:12;;;;;;;;;;;;;;;1.46;91.15;101819.72;5038838;28;1297;-74
2023/03/27 05:32:38;;;;;;;;;;;;;;;1.41;90.99;101826.66;5044418;28;1632;-74
2023/03/27 05:35:04;;;;;;;;;;;;;;;1.40;91.02;101819.88;5044930;28;1394;-74
2023/03/27 05:37:29;;;;;;;;;;;;;;;1.39;91.35;101823.31;5047384;28;1344;-74
2023/03/27 05:39:54;;;;;;;;;;;;;;;1.40;91.54;101834.38;5046605;28;1481;-74
2023/03/27 05:42:19;;;;;;;;;;;;;;;1.37;91.41;101835.28;5041697;28;1644;-74
2023/03/27 05:44:45;;;;;;;;;;;;;;;1.37;91.82;101840.41;5026798;28;1752;-74
2023/03/27 05:47:11;;;;;;;;;;;;;;;1.38;92.03;101851.47;5028090;28;1898;-74
2023/03/27 05:49:36;;;;;;;;;;;;;;;1.39;91.77;101843.78;5043444;28;1443;-75
2023/03/27 05:52:02;;;;;;;;;;;;;;;1.42;92.01;101842.84;5038613;28;1128;-74
2023/03/27 05:54:28;;;;;;;;;;;;;;;1.56;91.91;101846.72;5049221;28;1151;-75
2023/03/27 05:56:53;;;;;;;;;;;;;;;1.46;91.55;101849.56;5028768;28;1997;-74
2023/03/27 05:59:19;;;;;;;;;;;;;;;1.48;91.98;101858.84;5044584;28;1734;-74
2023/03/27 06:01:44;;;;;;;;;;;;;;;1.52;91.98;101852.78;5047561;28;1318;-74
2023/03/27 06:04:11;;;;;;;;;;;;;;;1.50;91.94;101852.00;5047948;28;1276;-73
2023/03/27 06:06:36;;;;;;;;;;;;;;;1.57;92.13;101858.59;5048053;28;1886;-74
2023/03/27 06:09:02;;;;;;;;;;;;;;;1.55;92.40;101865.50;5029696;28;1203;-74
2023/03/27 06:11:27;;;;;;;;;;;;;;;1.63;92.51;101856.75;5030131;28;1490;-74
2023/03/27 06:13:52;;;;;;;;;;;;;;;1.64;92.33;101854.16;5046468;28;5025;-75
2023/03/27 06:16:21;;;;;;;;;;;;;;;1.75;92.33;101859.81;5043403;28;1130;-75
2023/03/27 06:18:46;;;;;;;;;;;;;;;1.72;92.39;101861.59;5031416;28;2427;-74
2023/03/27 06:21:12;;;;;;;;;;;;;;;1.74;92.72;101864.97;5040064;28;1847;-76
2023/03/27 06:23:37;;;;;;;;;;;;;;;1.82;92.59;101871.53;5043359;28;1038;-74
2023/03/27 06:26:02;;;;;;;;;;;;;;;1.81;92.78;101869.03;5047103;28;1316;-74
2023/03/27 06:28:28;;;;;;;;;;;;;;;1.81;92.17;101882.66;5044145;28;1981;-74
2023/03/27 06:30:53;;;;;;;;;;;;;;;1.81;91.97;101877.53;5045803;28;1250;-74
2023/03/27 06:33:19;;;;;;;;;;;;;;;1.81;92.01;101881.81;5044929;28;1201;-74
2023/03/27 06:35:45;;;;;;;;;;;;;;;1.83;92.09;101885.16;5043491;28;1852;-74
2023/03/27 06:38:11;;;;;;;;;;;;;;;1.86;92.14;101883.38;5040899;28;1460;-74
2023/03/27 06:40:37;;;;;;;;;;;;;;;1.81;92.12;101892.88;5047337;28;1281;-74
2023/03/27 06:43:07;;;;;;;;;;;;;;;1.88;92.32;101892.72;5044143;28;1321;-75
2023/03/27 06:45:33;;;;;;;;;;;;;;;1.87;92.67;101897.00;5044664;28;1579;-74
2023/03/27 06:48:01;;;;;;;;;;;;;;;1.96;91.89;101906.97;5046803;28;1989;-74
2023/03/27 06:50:27;;;;;;;;;;;;;;;1.90;92.52;101904.59;5047596;28;1575;-74
2023/03/27 06:52:52;;;;;;;;;;;;;;;1.99;92.93;101904.31;5038874;28;1215;-74
2023/03/27 06:55:19;;;;;;;;;;;;;;;1.96;92.64;101906.97;5043348;28;1526;-74
2023/03/27 06:57:45;;;;;;;;;;;;;;;2.08;92.75;101901.50;5037924;28;2153;-74
2023/03/27 07:00:15;;;;;;;;;;;;;;;2.11;92.74;101916.75;5045166;28;1797;-74
2023/03/27 07:02:41;;;;;;;;;;;;;;;2.17;92.52;101914.91;5048499;28;1317;-74
2023/03/27 07:05:07;;;;;;;;;;;;;;;2.17;92.39;101915.75;5044717;28;1524;-74
2023/03/27 07:07:32;;;;;;;;;;;;;;;2.23;92.67;101907.88;5041093;28;1895;-74
2023/03/27 07:09:57;;;;;;;;;;;;;;;2.26;93.10;101924.88;5047369;28;1554;-74
2023/03/27 07:12:23;;;;;;;;;;;;;;;2.33;93.07;101918.69;5047757;28;1642;-75
2023/03/27 07:14:48;;;;;;;;;;;;;;;2.44;92.04;101921.78;5046752;28;4999;-74
2023/03/27 07:17:13;;;;;;;;;;;;;;;2.49;92.45;101932.72;5043965;28;1312;-75
2023/03/27 07:19:38;;;;;;;;;;;;;;;2.56;92.23;101938.50;5029300;28;1588;-74
2023/03/27 07:22:03;;;;;;;;;;;;;;;2.59;91.84;101936.69;5046999;28;1706;-74
2023/03/27 07:24:29;;;;;;;;;;;;;;;2.69;91.07;101944.06;5046631;28;1226;-75
2023/03/27 07:26:54;;;;;;;;;;;;;;;2.72;90.83;101955.06;5045025;28;1961;-74
2023/03/27 07:29:19;;;;;;;;;;;;;;;2.66;90.60;101955.25;5046845;28;1345;-74
2023/03/27 07:31:44;;;;;;;;;;;;;;;2.77;89.68;101957.50;5045671;28;1679;-74
2023/03/27 07:34:10;;;;;;;;;;;;;;;2.86;88.66;101959.75;5044704;28;1301;-74
2023/03/27 07:36:35;;;;;;;;;;;;;;;2.83;89.21;101953.00;5027216;28;1938;-74
2023/03/27 07:39:00;;;;;;;;;;;;;;;2.96;89.42;101961.16;5046481;28;1236;-74
2023/03/27 07:41:25;;;;;;;;;;;;;;;3.06;88.25;101959.97;5047677;28;1292;-74
2023/03/27 07:43:51;;;;;;;;;;;;;;;3.11;88.27;101952.16;5044324;28;1267;-74
2023/03/27 07:46:16;;;;;;;;;;;;;;;3.20;87.58;101960.34;5046178;28;1976;-75
2023/03/27 07:48:41;;;;;;;;;;;;;;;3.26;86.83;101956.75;5026708;28;1449;-74
2023/03/27 07:51:06;;;;;;;;;;;;;;;3.36;86.08;101957.28;5047071;28;1766;-74
2023/03/27 07:53:33;;;;;;;;;;;;;;;3.31;86.64;101956.59;5028526;28;1303;-76
2023/03/27 07:55:59;;;;;;;;;;;;;;;3.38;86.37;101955.50;5044549;28;2066;-75
2023/03/27 07:58:24;;;;;;;;;;;;;;;3.63;84.80;101961.50;5025533;28;1560;-74
2023/03/27 08:00:52;;;;;;;;;;;;;;;3.57;84.94;101966.84;5045342;28;1284;-74
2023/03/27 08:03:18;;;;;;;;;;;;;;;3.73;83.25;101967.16;5044497;28;1374;-74
2023/03/27 08:05:44;;;;;;;;;;;;;;;3.69;84.47;101968.97;5046685;28;1236;-74
2023/03/27 08:08:09;;;;;;;;;;;;;;;3.96;82.23;101963.78;5041258;28;1914;-75
2023/03/27 08:10:35;;;;;;;;;;;;;;;3.92;82.29;101972.47;5039424;28;1997;-74
2023/03/27 08:13:00;;;;;;;;;;;;;;;3.89;81.71;101982.84;5044268;28;1399;-74
2023/03/27 08:15:25;;;;;;;;;;;;;;;3.89;82.47;101988.81;5044225;28;5140;-74
2023/03/27 08:17:53;;;;;;;;;;;;;;;3.96;81.10;101994.59;5038947;28;1599;-76
2023/03/27 08:20:18;;;;;;;;;;;;;;;4.02;81.02;101999.50;5037317;28;1908;-75
2023/03/27 08:22:44;;;;;;;;;;;;;;;3.89;81.99;101993.09;5045660;28;1131;-74
2023/03/27 08:25:09;;;;;;;;;;;;;;;3.97;82.84;101996.25;5028506;28;1215;-74
2023/03/27 08:27:35;;;;;;;;;;;;;;;4.15;82.41;101995.59;5028899;28;1933;-75
2023/03/27 08:30:00;;;;;;;;;;;;;;;4.20;83.14;101998.00;5026322;28;1321;-74
2023/03/27 08:32:26;;;;;;;;;;;;;;;4.29;80.48;101994.25;5041203;28;1565;-74
2023/03/27 08:34:51;;;;;;;;;;;;;;;4.20;82.11;102003.97;5045960;28;1130;-74
2023/03/27 08:37:17;;;;;;;;;;;;;;;4.24;81.73;102000.41;5042145;28;1231;-75
2023/03/27 08:39:45;;;;;;;;;;;;;;;4.32;80.86;102001.84;5048052;28;1252;-74
2023/03/27 08:42:15;;;;;;;;;;;;;;;4.41;81.39;101999.75;5041677;28;1517;-74
2023/03/27 08:44:40;;;;;;;;;;;;;;;4.59;79.47;102016.25;5044072;28;1305;-74
2023/03/27 08:47:11;;;;;;;;;;;;;;;4.52;77.90;102014.78;5041363;28;1930;-74
2023/03/27 08:49:43;;;;;;;;;;;;;;;4.54;76.43;102018.16;5039794;28;1877;-74
2023/03/27 08:52:19;;;;;;;;;;;;;;;4.66;76.77;102022.81;5044454;28;1352;-75
2023/03/27 08:54:49;;;;;;;;;;;;;;;4.64;74.97;102024.59;5044127;28;1222;-74
2023/03/27 08:57:19;;;;;;;;;;;;;;;4.58;73.69;102029.13;5043446;28;1227;-74
2023/03/27 08:59:45;;;;;;;;;;;;;;;4.67;73.53;102034.78;5045255;28;1574;-74
2023/03/27 09:02:17;;;;;;;;;;;;;;;4.66;74.24;102027.97;5045585;28;1532;-74
2023/03/27 09:04:48;;;;;;;;;;;;;;;4.73;73.09;102044.00;5045267;28;1339;-75
2023/03/27 09:07:33;;;;;;;;;;;;;;;4.89;74.46;102039.13;5044097;28;2378;-76
2023/03/27 09:10:16;;;;;;;;;;;;;;;4.96;69.96;102050.81;5048384;28;1491;-74
2023/03/27 09:12:54;;;;;;;;;;;;;;;4.91;69.21;102047.59;5050162;28;1262;-74
2023/03/27 09:15:24;;;;;;;;;;;;;;;4.68;68.88;102049.28;5047590;28;4980;-74
2023/03/27 09:17:59;;;;;;;;;;;;;;;4.74;70.20;102054.19;5049853;28;1719;-73
2023/03/27 09:20:32;;;;;;;;;;;;;;;4.85;69.40;102063.25;5046420;28;1289;-75
2023/03/27 09:23:09;;;;;;;;;;;;;;;4.82;69.40;102053.06;5045557;28;1184;-75
2023/03/27 09:25:38;;;;;;;;;;;;;;;4.74;69.12;102066.22;5045622;28;1334;-74
2023/03/27 09:28:11;;;;;;;;;;;;;;;4.68;69.10;102062.13;5048712;28;1948;-74
2023/03/27 09:30:37;;;;;;;;;;;;;;;4.71;69.16;102056.91;5026990;28;2273;-74
2023/03/27 09:33:04;;;;;;;;;;;;;;;4.71;68.79;102062.03;5043718;28;1497;-75
2023/03/27 09:35:30;;;;;;;;;;;;;;;4.79;68.93;102059.19;5043859;28;1394;-76
2023/03/27 09:38:02;;;;;;;;;;;;;;;4.82;68.46;102068.50;5046688;28;1166;-75
2023/03/27 09:40:38;;;;;;;;;;;;;;;4.90;67.63;102072.47;5047122;28;1579;-74
2023/03/27 09:43:11;;;;;;;;;;;;;;;5.01;64.93;102079.78;5027684;28;1326;-74
2023/03/27 09:45:38;;;;;;;;;;;;;;;5.07;64.62;102079.53;5046680;28;1586;-75
2023/03/27 09:48:05;;;;;;;;;;;;;;;5.07;64.62;102079.53;5047073;28;1979;-75
2023/03/27 09:50:40;;;;;;;;;;;;;;;5.11;64.85;102080.28;5049379;28;1412;-74
2023/03/27 09:53:17;;;;;;;;;;;;;;;5.32;65.79;102071.69;5048785;28;1477;-75
2023/03/27 09:55:51;;;;;;;;;;;;;;;5.38;63.88;102083.47;5048814;28;1250;-75
2023/03/27 09:58:26;;;;;;;;;;;;;;;5.43;65.27;102081.56;5043054;28;1270;-74
2023/03/27 10:01:12;;;;;;;;;;;;;;;5.47;65.16;102085.69;5041866;28;1405;-74
2023/03/27 10:03:39;;;;;;;;;;;;;;;5.49;63.16;102087.28;5029859;28;2122;-74
2023/03/27 10:06:06;;;;;;;;;;;;;;;5.60;62.04;102092.00;5048018;28;1305;-74
2023/03/27 10:08:36;;;;;;;;;;;;;;;5.84;60.28;102092.75;5046966;28;1933;-74
2023/03/27 10:11:05;;;;;;;;;;;;;;;5.76;60.81;102116.25;5046688;28;1812;-74
2023/03/27 10:13:30;;;;;;;;;;;;;;;5.27;70.04;102136.16;5046411;28;5050;-74
2023/03/27 10:15:59;;;;;;;;;;;;;;;4.71;73.63;102128.03;5023926;28;2057;-75
2023/03/27 10:18:26;;;;;;;;;;;;;;;3.95;77.96;102141.75;5045702;28;1058;-74
2023/03/27 10:20:52;;;;;;;;;;;;;;;3.65;81.19;102159.81;5046411;28;1443;-74
2023/03/27 10:23:23;;;;;;;;;;;;;;;3.49;83.08;102156.03;5048100;28;1171;-73
2023/03/27 10:25:49;;;;;;;;;;;;;;;3.46;86.16;102169.81;5049396;28;1105;-74
2023/03/27 10:28:14;;;;;;;;;;;;;;;3.40;85.63;102166.59;5025264;28;1898;-73
2023/03/27 10:30:39;;;;;;;;;;;;;;;3.26;83.57;102176.41;5046037;28;1370;-73
2023/03/27 10:33:06;;;;;;;;;;;;;;;2.87;85.46;102169.00;5047367;28;1764;-73
2023/03/27 10:35:40;;;;;;;;;;;;;;;3.02;84.44;102167.72;5026750;28;2034;-73
2023/03/27 10:38:11;;;;;;;;;;;;;;;2.99;85.43;102166.09;5046666;28;1262;-73
2023/03/27 10:40:37;;;;;;;;;;;;;;;3.03;86.34;102154.84;5048635;28;1308;-73
2023/03/27 10:43:15;;;;;;;;;;;;;;;3.13;84.75;102166.50;5046770;28;1470;-73
2023/03/27 10:45:50;;;;;;;;;;;;;;;3.24;84.85;102167.94;5040308;28;1433;-73
2023/03/27 10:48:27;;;;;;;;;;;;;;;3.38;84.59;102165.78;5043808;28;1898;-74
2023/03/27 10:50:56;;;;;;;;;;;;;;;3.50;83.33;102170.56;5046710;28;1443;-74
2023/03/27 10:53:42;;;;;;;;;;;;;;;3.50;81.99;102170.56;5030844;28;1276;-74
2023/03/27 10:56:14;;;;;;;;;;;;;;;3.60;82.43;102166.81;5045553;28;1221;-73
2023/03/27 10:58:48;;;;;;;;;;;;;;;3.95;82.22;102163.13;5040792;28;2268;-73
2023/03/27 11:01:19;;;;;;;;;;;;;;;3.99;82.32;102158.75;5046826;28;1478;-73
2023/03/27 11:04:00;;;;;;;;;;;;;;;4.06;81.79;102157.66;5048272;28;1297;-73
2023/03/27 11:06:28;;;;;;;;;;;;;;;4.20;81.40;102157.19;5044755;28;1898;-73
2023/03/27 11:09:08;;;;;;;;;;;;;;;4.52;79.97;102158.66;5041488;28;1339;-73
2023/03/27 11:11:46;;;;;;;;;;;;;;;4.58;80.39;102163.56;5038669;28;1877;-74
2023/03/27 11:14:17;;;;;;;;;;;;;;;4.77;79.34;102164.63;5024832;28;5016;-73
2023/03/27 11:16:44;;;;;;;;;;;;;;;4.94;78.82;102155.47;5045233;28;1280;-73
2023/03/27 11:19:09;;;;;;;;;;;;;;;5.01;79.24;102157.75;5044876;28;1303;-73
2023/03/27 11:21:43;;;;;;;;;;;;;;;5.26;78.88;102152.50;5046794;28;1329;-73
2023/03/27 11:24:14;;;;;;;;;;;;;;;5.48;76.30;102146.53;5044501;28;1826;-74
2023/03/27 11:26:47;;;;;;;;;;;;;;;5.76;72.84;102147.13;5047332;28;1898;-73
2023/03/27 11:29:19;;;;;;;;;;;;;;;5.63;73.35;102155.41;5046110;28;1502;-73
2023/03/27 11:31:47;;;;;;;;;;;;;;;5.57;72.41;102146.19;5027951;28;2247;-75
2023/03/27 11:34:15;;;;;;;;;;;;;;;5.76;72.16;102141.97;5043180;28;1455;-75
2023/03/27 11:37:00;;;;;;;;;;;;;;;5.76;73.73;102147.13;5043336;28;1849;-74
2023/03/27 11:39:42;;;;;;;;;;;;;;;5.89;73.87;102146.63;5041772;28;1365;-74
2023/03/27 11:42:16;;;;;;;;;;;;;;;6.03;73.01;102154.66;5025564;28;2196;-74
2023/03/27 11:44:41;;;;;;;;;;;;;;;6.05;71.12;102165.75;5043906;28;1211;-74
2023/03/27 11:47:26;;;;;;;;;;;;;;;6.08;67.93;102165.63;5038330;28;1906;-74
2023/03/27 11:50:00;;;;;;;;;;;;;;;5.86;70.62;102163.88;5047144;28;1296;-73
2023/03/27 11:52:31;;;;;;;;;;;;;;;6.06;72.09;102164.84;5028542;28;1582;-73
2023/03/27 11:55:07;;;;;;;;;;;;;;;6.23;71.85;102152.09;5041342;28;2322;-74
2023/03/27 11:57:38;;;;;;;;;;;;;;;6.35;72.26;102151.56;5043506;28;1427;-74
2023/03/27 12:00:10;;;;;;;;;;;;;;;6.43;71.89;102153.84;5037058;28;1143;-74
2023/03/27 12:02:41;;;;;;;;;;;;;;;6.69;69.26;102160.41;5039743;28;1649;-73
2023/03/27 12:05:25;;;;;;;;;;;;;;;6.72;68.98;102160.31;5038823;28;1232;-73
2023/03/27 12:07:53;;;;;;;;;;;;;;;6.95;68.45;102150.72;5041004;28;1957;-75
2023/03/27 12:10:18;;;;;;;;;;;;;;;7.05;65.18;102167.41;5041517;28;1531;-74
2023/03/27 12:12:44;;;;;;;;;;;;;;;7.04;63.53;102169.16;5043026;28;1433;-74
2023/03/27 12:15:31;;;;;;;;;;;;;;;7.07;58.47;102170.78;5046588;28;5009;-73
2023/03/27 12:17:59;;;;;;;;;;;;;;;7.08;58.43;102167.28;5044499;28;1629;-73
2023/03/27 12:20:32;;;;;;;;;;;;;;;7.08;56.34;102167.28;5039398;28;1209;-75
2023/03/27 12:23:06;;;;;;;;;;;;;;;6.82;58.33;102171.03;5043240;28;1290;-73
2023/03/27 12:25:40;;;;;;;;;;;;;;;6.92;58.79;102173.13;5041308;28;1003;-74
2023/03/27 12:28:13;;;;;;;;;;;;;;;7.12;62.63;102184.31;5045017;28;1969;-74
2023/03/27 12:30:49;;;;;;;;;;;;;;;6.96;65.01;102188.47;5028880;28;1157;-74
2023/03/27 12:33:28;;;;;;;;;;;;;;;6.63;64.09;102182.16;5046299;28;1049;-74
2023/03/27 12:35:55;;;;;;;;;;;;;;;6.16;66.04;102186.75;5038954;28;1133;-74
2023/03/27 12:38:23;;;;;;;;;;;;;;;5.88;65.51;102183.56;5036586;28;1301;-74
2023/03/27 12:40:59;;;;;;;;;;;;;;;5.84;66.66;102186.25;5035336;28;1365;-74
2023/03/27 12:43:30;;;;;;;;;;;;;;;5.88;65.45;102191.31;5040433;28;1251;-74
2023/03/27 12:46:13;;;;;;;;;;;;;;;5.77;66.59;102184.00;5041569;28;1597;-73
2023/03/27 12:48:57;;;;;;;;;;;;;;;5.86;67.85;102184.47;5044950;28;1918;-73
2023/03/27 12:51:42;;;;;;;;;;;;;;;6.00;67.18;102196.00;5046267;28;2286;-74
2023/03/27 12:54:12;;;;;;;;;;;;;;;6.10;64.25;102192.16;5042675;28;1345;-73
2023/03/27 12:56:38;;;;;;;;;;;;;;;6.14;64.80;102193.72;5044285;28;1719;-73
2023/03/27 12:59:22;;;;;;;;;;;;;;;6.15;64.19;102190.22;5043191;28;1531;-73
2023/03/27 13:02:03;;;;;;;;;;;;;;;6.06;62.63;102190.59;5042803;28;1214;-73
2023/03/27 13:04:37;;;;;;;;;;;;;;;6.01;63.98;102200.22;5041238;28;1504;-75
2023/03/27 13:07:11;;;;;;;;;;;;;;;6.05;64.17;102205.22;5038707;28;1894;-73